sensor_id;sensor_type;location;lat;lon;timestamp;P1;durP1;ratioP1;P2;durP2;ratioP2
66129;SDS011;52930;51.464;11.764;2023-11-22T00:00:58;14.73;;;5.30;;
66129;SDS011;52930;51.464;11.764;2023-11-22T00:03:23;15.80;;;4.90;;
66129;SDS011;52930;51.464;11.764;2023-11-22T00:05:51;14.00;;;4.75;;
66129;SDS011;52930;51.464;11.764;2023-11-22T00:08:17;17.63;;;4.90;;
66129;SDS011;52930;51.464;11.764;2023-11-22T00:10:42;12.63;;;5.07;;
66129;SDS011;52930;51.464;11.764;2023-11-22T00:13:09;18.10;;;5.13;;
66129;SDS011;52930;51.464;11.764;2023-11-22T00:15:36;13.68;;;5.25;;
66129;SDS011;52930;51.464;11.764;2023-11-22T00:18:02;13.07;;;5.30;;
66129;SDS011;52930;51.464;11.764;2023-11-22T00:20:28;12.80;;;4.93;;
66129;SDS011;52930;51.464;11.764;2023-11-22T00:22:55;14.80;;;4.53;;
66129;SDS011;52930;51.464;11.764;2023-11-22T00:25:20;14.33;;;5.27;;
66129;SDS011;52930;51.464;11.764;2023-11-22T00:27:45;13.13;;;4.90;;
66129;SDS011;52930;51.464;11.764;2023-11-22T00:30:11;12.68;;;4.60;;
66129;SDS011;52930;51.464;11.764;2023-11-22T00:32:37;12.70;;;4.80;;
66129;SDS011;52930;51.464;11.764;2023-11-22T00:35:03;14.73;;;4.90;;
66129;SDS011;52930;51.464;11.764;2023-11-22T00:37:28;14.48;;;5.15;;
66129;SDS011;52930;51.464;11.764;2023-11-22T00:39:54;14.77;;;5.07;;
66129;SDS011;52930;51.464;11.764;2023-11-22T00:42:19;12.10;;;4.80;;
66129;SDS011;52930;51.464;11.764;2023-11-22T00:44:45;14.52;;;5.15;;
66129;SDS011;52930;51.464;11.764;2023-11-22T00:47:11;14.10;;;4.95;;
66129;SDS011;52930;51.464;11.764;2023-11-22T00:49:37;15.07;;;5.23;;
66129;SDS011;52930;51.464;11.764;2023-11-22T00:52:02;11.73;;;4.10;;
66129;SDS011;52930;51.464;11.764;2023-11-22T00:54:28;17.92;;;5.00;;
66129;SDS011;52930;51.464;11.764;2023-11-22T00:56:53;15.80;;;4.73;;
66129;SDS011;52930;51.464;11.764;2023-11-22T00:59:18;15.40;;;5.20;;
66129;SDS011;52930;51.464;11.764;2023-11-22T01:01:44;12.77;;;4.35;;
66129;SDS011;52930;51.464;11.764;2023-11-22T01:04:10;12.07;;;4.40;;
66129;SDS011;52930;51.464;11.764;2023-11-22T01:06:36;15.13;;;4.77;;
66129;SDS011;52930;51.464;11.764;2023-11-22T01:09:02;10.73;;;4.25;;
66129;SDS011;52930;51.464;11.764;2023-11-22T01:11:27;13.73;;;4.82;;
66129;SDS011;52930;51.464;11.764;2023-11-22T01:13:53;12.47;;;4.67;;
66129;SDS011;52930;51.464;11.764;2023-11-22T01:16:18;13.97;;;4.53;;
66129;SDS011;52930;51.464;11.764;2023-11-22T01:18:43;13.80;;;4.87;;
66129;SDS011;52930;51.464;11.764;2023-11-22T01:21:11;15.25;;;4.80;;
66129;SDS011;52930;51.464;11.764;2023-11-22T01:23:36;12.77;;;4.70;;
66129;SDS011;52930;51.464;11.764;2023-11-22T01:26:02;12.80;;;4.60;;
66129;SDS011;52930;51.464;11.764;2023-11-22T01:28:28;14.43;;;5.15;;
66129;SDS011;52930;51.464;11.764;2023-11-22T01:30:53;12.77;;;4.70;;
66129;SDS011;52930;51.464;11.764;2023-11-22T01:33:22;9.63;;;4.27;;
66129;SDS011;52930;51.464;11.764;2023-11-22T01:35:48;13.00;;;4.88;;
66129;SDS011;52930;51.464;11.764;2023-11-22T01:38:16;10.93;;;4.15;;
66129;SDS011;52930;51.464;11.764;2023-11-22T01:40:44;11.47;;;4.07;;
66129;SDS011;52930;51.464;11.764;2023-11-22T01:43:14;12.23;;;4.07;;
66129;SDS011;52930;51.464;11.764;2023-11-22T01:45:43;15.05;;;4.22;;
66129;SDS011;52930;51.464;11.764;2023-11-22T01:48:09;11.73;;;4.00;;
66129;SDS011;52930;51.464;11.764;2023-11-22T01:50:36;13.27;;;4.20;;
66129;SDS011;52930;51.464;11.764;2023-11-22T01:53:02;11.90;;;3.63;;
66129;SDS011;52930;51.464;11.764;2023-11-22T01:55:28;12.65;;;4.20;;
66129;SDS011;52930;51.464;11.764;2023-11-22T01:57:55;11.30;;;4.13;;
66129;SDS011;52930;51.464;11.764;2023-11-22T02:00:21;10.60;;;3.63;;
66129;SDS011;52930;51.464;11.764;2023-11-22T02:02:46;11.17;;;4.03;;
66129;SDS011;52930;51.464;11.764;2023-11-22T02:05:12;13.10;;;3.97;;
66129;SDS011;52930;51.464;11.764;2023-11-22T02:07:37;9.88;;;3.47;;
66129;SDS011;52930;51.464;11.764;2023-11-22T02:10:05;11.77;;;3.67;;
66129;SDS011;52930;51.464;11.764;2023-11-22T02:12:32;11.77;;;4.32;;
66129;SDS011;52930;51.464;11.764;2023-11-22T02:14:58;10.60;;;3.78;;
66129;SDS011;52930;51.464;11.764;2023-11-22T02:17:23;10.00;;;3.70;;
66129;SDS011;52930;51.464;11.764;2023-11-22T02:19:49;9.90;;;3.43;;
66129;SDS011;52930;51.464;11.764;2023-11-22T02:22:14;10.05;;;3.67;;
66129;SDS011;52930;51.464;11.764;2023-11-22T02:24:40;9.30;;;3.40;;
66129;SDS011;52930;51.464;11.764;2023-11-22T02:27:06;9.53;;;3.53;;
66129;SDS011;52930;51.464;11.764;2023-11-22T02:29:31;8.13;;;3.05;;
66129;SDS011;52930;51.464;11.764;2023-11-22T02:31:57;8.80;;;3.50;;
66129;SDS011;52930;51.464;11.764;2023-11-22T02:34:22;11.00;;;3.43;;
66129;SDS011;52930;51.464;11.764;2023-11-22T02:36:48;9.05;;;3.45;;
66129;SDS011;52930;51.464;11.764;2023-11-22T02:39:13;11.15;;;3.60;;
66129;SDS011;52930;51.464;11.764;2023-11-22T02:41:39;13.97;;;3.80;;
66129;SDS011;52930;51.464;11.764;2023-11-22T02:44:04;12.87;;;3.70;;
66129;SDS011;52930;51.464;11.764;2023-11-22T02:46:32;12.82;;;3.92;;
66129;SDS011;52930;51.464;11.764;2023-11-22T02:48:58;8.57;;;3.20;;
66129;SDS011;52930;51.464;11.764;2023-11-22T02:51:24;9.75;;;3.30;;
66129;SDS011;52930;51.464;11.764;2023-11-22T02:53:50;9.52;;;3.17;;
66129;SDS011;52930;51.464;11.764;2023-11-22T02:56:16;10.93;;;3.70;;
66129;SDS011;52930;51.464;11.764;2023-11-22T02:58:42;11.10;;;3.90;;
66129;SDS011;52930;51.464;11.764;2023-11-22T03:01:07;10.70;;;3.63;;
66129;SDS011;52930;51.464;11.764;2023-11-22T03:03:33;10.67;;;3.87;;
66129;SDS011;52930;51.464;11.764;2023-11-22T03:05:59;11.75;;;3.80;;
66129;SDS011;52930;51.464;11.764;2023-11-22T03:08:25;11.73;;;3.58;;
66129;SDS011;52930;51.464;11.764;2023-11-22T03:10:50;9.73;;;3.60;;
66129;SDS011;52930;51.464;11.764;2023-11-22T03:13:16;9.83;;;3.27;;
66129;SDS011;52930;51.464;11.764;2023-11-22T03:15:44;10.48;;;3.92;;
66129;SDS011;52930;51.464;11.764;2023-11-22T03:18:09;9.63;;;3.17;;
66129;SDS011;52930;51.464;11.764;2023-11-22T03:20:36;9.73;;;3.40;;
66129;SDS011;52930;51.464;11.764;2023-11-22T03:23:02;12.35;;;3.70;;
66129;SDS011;52930;51.464;11.764;2023-11-22T03:25:27;9.40;;;3.20;;
66129;SDS011;52930;51.464;11.764;2023-11-22T03:27:53;9.52;;;3.63;;
66129;SDS011;52930;51.464;11.764;2023-11-22T03:30:19;11.03;;;3.30;;
66129;SDS011;52930;51.464;11.764;2023-11-22T03:32:45;10.87;;;3.50;;
66129;SDS011;52930;51.464;11.764;2023-11-22T03:35:10;10.15;;;3.00;;
66129;SDS011;52930;51.464;11.764;2023-11-22T03:37:35;11.93;;;3.22;;
66129;SDS011;52930;51.464;11.764;2023-11-22T03:40:01;11.37;;;4.03;;
66129;SDS011;52930;51.464;11.764;2023-11-22T03:42:27;7.65;;;3.10;;
66129;SDS011;52930;51.464;11.764;2023-11-22T03:44:53;10.90;;;3.70;;
66129;SDS011;52930;51.464;11.764;2023-11-22T03:47:19;8.47;;;3.50;;
66129;SDS011;52930;51.464;11.764;2023-11-22T03:49:44;9.77;;;4.00;;
66129;SDS011;52930;51.464;11.764;2023-11-22T03:52:10;10.60;;;3.87;;
66129;SDS011;52930;51.464;11.764;2023-11-22T03:54:36;14.18;;;3.47;;
66129;SDS011;52930;51.464;11.764;2023-11-22T03:57:01;12.33;;;3.50;;
66129;SDS011;52930;51.464;11.764;2023-11-22T03:59:27;8.93;;;3.05;;
66129;SDS011;52930;51.464;11.764;2023-11-22T04:01:53;8.80;;;3.50;;
66129;SDS011;52930;51.464;11.764;2023-11-22T04:04:19;10.00;;;3.25;;
66129;SDS011;52930;51.464;11.764;2023-11-22T04:06:45;11.27;;;3.80;;
66129;SDS011;52930;51.464;11.764;2023-11-22T04:09:10;10.40;;;4.17;;
66129;SDS011;52930;51.464;11.764;2023-11-22T04:11:38;8.95;;;3.35;;
66129;SDS011;52930;51.464;11.764;2023-11-22T04:14:04;9.95;;;3.65;;
66129;SDS011;52930;51.464;11.764;2023-11-22T04:16:30;10.87;;;3.37;;
66129;SDS011;52930;51.464;11.764;2023-11-22T04:18:55;11.50;;;4.00;;
66129;SDS011;52930;51.464;11.764;2023-11-22T04:21:20;10.37;;;3.90;;
66129;SDS011;52930;51.464;11.764;2023-11-22T04:23:46;9.88;;;3.30;;
66129;SDS011;52930;51.464;11.764;2023-11-22T04:26:13;9.60;;;3.53;;
66129;SDS011;52930;51.464;11.764;2023-11-22T04:28:39;10.55;;;3.22;;
66129;SDS011;52930;51.464;11.764;2023-11-22T04:31:04;10.47;;;3.23;;
66129;SDS011;52930;51.464;11.764;2023-11-22T04:33:30;9.30;;;3.10;;
66129;SDS011;52930;51.464;11.764;2023-11-22T04:35:55;12.30;;;3.57;;
66129;SDS011;52930;51.464;11.764;2023-11-22T04:38:21;11.45;;;3.47;;
66129;SDS011;52930;51.464;11.764;2023-11-22T04:40:46;10.87;;;3.73;;
66129;SDS011;52930;51.464;11.764;2023-11-22T04:43:12;12.40;;;3.75;;
66129;SDS011;52930;51.464;11.764;2023-11-22T04:45:38;9.40;;;3.33;;
66129;SDS011;52930;51.464;11.764;2023-11-22T04:48:04;9.65;;;3.83;;
66129;SDS011;52930;51.464;11.764;2023-11-22T04:50:30;10.47;;;3.53;;
66129;SDS011;52930;51.464;11.764;2023-11-22T04:52:55;9.38;;;3.25;;
66129;SDS011;52930;51.464;11.764;2023-11-22T04:55:20;10.57;;;3.63;;
66129;SDS011;52930;51.464;11.764;2023-11-22T04:57:48;9.93;;;3.60;;
66129;SDS011;52930;51.464;11.764;2023-11-22T05:00:13;10.30;;;3.80;;
66129;SDS011;52930;51.464;11.764;2023-11-22T05:02:39;8.88;;;3.30;;
66129;SDS011;52930;51.464;11.764;2023-11-22T05:05:05;11.30;;;3.40;;
66129;SDS011;52930;51.464;11.764;2023-11-22T05:07:31;11.43;;;4.13;;
66129;SDS011;52930;51.464;11.764;2023-11-22T05:09:56;13.33;;;3.70;;
66129;SDS011;52930;51.464;11.764;2023-11-22T05:12:22;10.03;;;4.07;;
66129;SDS011;52930;51.464;11.764;2023-11-22T05:14:47;9.80;;;3.57;;
66129;SDS011;52930;51.464;11.764;2023-11-22T05:17:13;10.65;;;3.17;;
66129;SDS011;52930;51.464;11.764;2023-11-22T05:19:38;11.25;;;3.80;;
66129;SDS011;52930;51.464;11.764;2023-11-22T05:22:04;9.97;;;3.07;;
66129;SDS011;52930;51.464;11.764;2023-11-22T05:24:30;10.10;;;3.13;;
66129;SDS011;52930;51.464;11.764;2023-11-22T05:26:55;8.68;;;3.33;;
66129;SDS011;52930;51.464;11.764;2023-11-22T05:29:21;10.93;;;3.50;;
66129;SDS011;52930;51.464;11.764;2023-11-22T05:31:46;12.73;;;3.57;;
66129;SDS011;52930;51.464;11.764;2023-11-22T05:34:12;9.10;;;3.33;;
66129;SDS011;52930;51.464;11.764;2023-11-22T05:36:38;9.73;;;3.10;;
66129;SDS011;52930;51.464;11.764;2023-11-22T05:39:03;11.60;;;3.40;;
66129;SDS011;52930;51.464;11.764;2023-11-22T05:41:29;9.53;;;3.57;;
66129;SDS011;52930;51.464;11.764;2023-11-22T05:43:54;12.73;;;4.07;;
66129;SDS011;52930;51.464;11.764;2023-11-22T05:46:20;9.50;;;3.33;;
66129;SDS011;52930;51.464;11.764;2023-11-22T05:48:53;10.15;;;3.28;;
66129;SDS011;52930;51.464;11.764;2023-11-22T05:51:21;13.43;;;3.92;;
66129;SDS011;52930;51.464;11.764;2023-11-22T05:53:46;8.70;;;3.50;;
66129;SDS011;52930;51.464;11.764;2023-11-22T05:56:12;10.23;;;3.73;;
66129;SDS011;52930;51.464;11.764;2023-11-22T05:58:37;9.95;;;3.92;;
66129;SDS011;52930;51.464;11.764;2023-11-22T06:01:06;11.60;;;3.73;;
66129;SDS011;52930;51.464;11.764;2023-11-22T06:03:32;10.25;;;3.85;;
66129;SDS011;52930;51.464;11.764;2023-11-22T06:05:58;8.93;;;3.25;;
66129;SDS011;52930;51.464;11.764;2023-11-22T06:08:24;11.77;;;3.70;;
66129;SDS011;52930;51.464;11.764;2023-11-22T06:10:50;11.93;;;3.70;;
66129;SDS011;52930;51.464;11.764;2023-11-22T06:13:16;10.50;;;3.45;;
66129;SDS011;52930;51.464;11.764;2023-11-22T06:15:42;10.77;;;3.63;;
66129;SDS011;52930;51.464;11.764;2023-11-22T06:18:07;13.60;;;3.47;;
66129;SDS011;52930;51.464;11.764;2023-11-22T06:20:33;11.70;;;3.70;;
66129;SDS011;52930;51.464;11.764;2023-11-22T06:22:58;8.77;;;3.30;;
66129;SDS011;52930;51.464;11.764;2023-11-22T06:25:23;11.35;;;4.30;;
66129;SDS011;52930;51.464;11.764;2023-11-22T06:27:49;10.77;;;3.70;;
66129;SDS011;52930;51.464;11.764;2023-11-22T06:30:15;10.80;;;4.50;;
66129;SDS011;52930;51.464;11.764;2023-11-22T06:32:40;10.67;;;3.80;;
66129;SDS011;52930;51.464;11.764;2023-11-22T06:35:07;10.75;;;3.63;;
66129;SDS011;52930;51.464;11.764;2023-11-22T06:37:34;9.32;;;3.42;;
66129;SDS011;52930;51.464;11.764;2023-11-22T06:39:59;10.57;;;3.33;;
66129;SDS011;52930;51.464;11.764;2023-11-22T06:42:25;12.75;;;4.22;;
66129;SDS011;52930;51.464;11.764;2023-11-22T06:44:51;11.35;;;3.50;;
66129;SDS011;52930;51.464;11.764;2023-11-22T06:47:18;12.57;;;3.40;;
66129;SDS011;52930;51.464;11.764;2023-11-22T06:49:43;9.40;;;3.40;;
66129;SDS011;52930;51.464;11.764;2023-11-22T06:52:09;10.57;;;3.60;;
66129;SDS011;52930;51.464;11.764;2023-11-22T06:54:34;9.90;;;3.63;;
66129;SDS011;52930;51.464;11.764;2023-11-22T06:57:01;10.60;;;3.58;;
66129;SDS011;52930;51.464;11.764;2023-11-22T06:59:27;11.25;;;4.53;;
66129;SDS011;52930;51.464;11.764;2023-11-22T07:01:53;13.23;;;4.53;;
66129;SDS011;52930;51.464;11.764;2023-11-22T07:04:18;13.10;;;4.17;;
66129;SDS011;52930;51.464;11.764;2023-11-22T07:06:43;14.10;;;4.60;;
66129;SDS011;52930;51.464;11.764;2023-11-22T07:09:09;14.17;;;5.10;;
66129;SDS011;52930;51.464;11.764;2023-11-22T07:11:35;14.10;;;4.68;;
66129;SDS011;52930;51.464;11.764;2023-11-22T07:14:02;16.02;;;4.47;;
66129;SDS011;52930;51.464;11.764;2023-11-22T07:16:28;13.57;;;4.75;;
66129;SDS011;52930;51.464;11.764;2023-11-22T07:18:54;12.50;;;4.10;;
66129;SDS011;52930;51.464;11.764;2023-11-22T07:21:19;11.67;;;4.57;;
66129;SDS011;52930;51.464;11.764;2023-11-22T07:23:46;11.38;;;4.35;;
66129;SDS011;52930;51.464;11.764;2023-11-22T07:26:12;13.40;;;4.00;;
66129;SDS011;52930;51.464;11.764;2023-11-22T07:28:39;12.27;;;3.83;;
66129;SDS011;52930;51.464;11.764;2023-11-22T07:31:06;11.60;;;3.87;;
66129;SDS011;52930;51.464;11.764;2023-11-22T07:33:32;14.27;;;4.45;;
66129;SDS011;52930;51.464;11.764;2023-11-22T07:35:58;14.00;;;4.37;;
66129;SDS011;52930;51.464;11.764;2023-11-22T07:38:24;10.68;;;3.92;;
66129;SDS011;52930;51.464;11.764;2023-11-22T07:40:49;12.53;;;3.87;;
66129;SDS011;52930;51.464;11.764;2023-11-22T07:43:16;12.18;;;4.13;;
66129;SDS011;52930;51.464;11.764;2023-11-22T07:45:41;10.60;;;4.07;;
66129;SDS011;52930;51.464;11.764;2023-11-22T07:48:08;11.07;;;4.13;;
66129;SDS011;52930;51.464;11.764;2023-11-22T07:50:37;12.07;;;3.88;;
66129;SDS011;52930;51.464;11.764;2023-11-22T07:53:02;12.80;;;4.43;;
66129;SDS011;52930;51.464;11.764;2023-11-22T07:55:29;10.32;;;3.80;;
66129;SDS011;52930;51.464;11.764;2023-11-22T07:57:55;14.33;;;4.33;;
66129;SDS011;52930;51.464;11.764;2023-11-22T08:00:20;9.23;;;3.87;;
66129;SDS011;52930;51.464;11.764;2023-11-22T08:02:47;11.30;;;4.18;;
66129;SDS011;52930;51.464;11.764;2023-11-22T08:05:13;11.40;;;4.15;;
66129;SDS011;52930;51.464;11.764;2023-11-22T08:07:40;11.32;;;3.85;;
66129;SDS011;52930;51.464;11.764;2023-11-22T08:10:09;10.63;;;3.88;;
66129;SDS011;52930;51.464;11.764;2023-11-22T08:12:40;10.73;;;3.85;;
66129;SDS011;52930;51.464;11.764;2023-11-22T08:15:05;13.10;;;4.50;;
66129;SDS011;52930;51.464;11.764;2023-11-22T08:17:33;10.00;;;3.83;;
66129;SDS011;52930;51.464;11.764;2023-11-22T08:19:59;11.93;;;4.27;;
66129;SDS011;52930;51.464;11.764;2023-11-22T08:22:25;10.20;;;3.70;;
66129;SDS011;52930;51.464;11.764;2023-11-22T08:24:53;11.23;;;4.18;;
66129;SDS011;52930;51.464;11.764;2023-11-22T08:27:20;10.37;;;3.90;;
66129;SDS011;52930;51.464;11.764;2023-11-22T08:29:46;12.02;;;4.43;;
66129;SDS011;52930;51.464;11.764;2023-11-22T08:32:12;10.55;;;3.53;;
66129;SDS011;52930;51.464;11.764;2023-11-22T08:34:38;10.07;;;4.37;;
66129;SDS011;52930;51.464;11.764;2023-11-22T08:37:03;10.87;;;4.30;;
66129;SDS011;52930;51.464;11.764;2023-11-22T08:39:28;10.90;;;4.03;;
66129;SDS011;52930;51.464;11.764;2023-11-22T08:41:54;11.02;;;3.90;;
66129;SDS011;52930;51.464;11.764;2023-11-22T08:44:20;14.40;;;4.20;;
66129;SDS011;52930;51.464;11.764;2023-11-22T08:46:45;31.00;;;12.10;;
66129;SDS011;52930;51.464;11.764;2023-11-22T08:49:12;12.20;;;4.45;;
66129;SDS011;52930;51.464;11.764;2023-11-22T08:51:37;10.90;;;3.90;;
66129;SDS011;52930;51.464;11.764;2023-11-22T08:54:02;28.03;;;11.10;;
66129;SDS011;52930;51.464;11.764;2023-11-22T08:56:28;11.20;;;4.53;;
66129;SDS011;52930;51.464;11.764;2023-11-22T08:58:54;14.20;;;5.07;;
66129;SDS011;52930;51.464;11.764;2023-11-22T09:01:19;12.33;;;4.33;;
66129;SDS011;52930;51.464;11.764;2023-11-22T09:03:45;11.57;;;4.30;;
66129;SDS011;52930;51.464;11.764;2023-11-22T09:06:10;10.45;;;3.80;;
66129;SDS011;52930;51.464;11.764;2023-11-22T09:08:36;11.20;;;4.17;;
66129;SDS011;52930;51.464;11.764;2023-11-22T09:11:02;10.93;;;4.40;;
66129;SDS011;52930;51.464;11.764;2023-11-22T09:13:30;12.77;;;4.32;;
66129;SDS011;52930;51.464;11.764;2023-11-22T09:15:56;11.07;;;4.53;;
66129;SDS011;52930;51.464;11.764;2023-11-22T09:18:21;10.27;;;4.10;;
66129;SDS011;52930;51.464;11.764;2023-11-22T09:20:47;10.80;;;3.45;;
66129;SDS011;52930;51.464;11.764;2023-11-22T09:23:13;14.00;;;5.20;;
66129;SDS011;52930;51.464;11.764;2023-11-22T09:25:40;12.27;;;5.00;;
66129;SDS011;52930;51.464;11.764;2023-11-22T09:28:05;9.83;;;4.30;;
66129;SDS011;52930;51.464;11.764;2023-11-22T09:30:32;10.55;;;3.92;;
66129;SDS011;52930;51.464;11.764;2023-11-22T09:33:14;11.38;;;3.97;;
66129;SDS011;52930;51.464;11.764;2023-11-22T09:35:40;13.55;;;5.03;;
66129;SDS011;52930;51.464;11.764;2023-11-22T09:38:06;11.90;;;4.60;;
66129;SDS011;52930;51.464;11.764;2023-11-22T09:40:41;11.48;;;4.78;;
66129;SDS011;52930;51.464;11.764;2023-11-22T09:43:12;12.45;;;5.40;;
66129;SDS011;52930;51.464;11.764;2023-11-22T09:45:42;13.43;;;4.30;;
66129;SDS011;52930;51.464;11.764;2023-11-22T09:48:07;14.07;;;5.13;;
66129;SDS011;52930;51.464;11.764;2023-11-22T09:53:12;10.98;;;4.25;;
66129;SDS011;52930;51.464;11.764;2023-11-22T09:55:39;14.63;;;4.85;;
66129;SDS011;52930;51.464;11.764;2023-11-22T09:58:08;10.15;;;3.65;;
66129;SDS011;52930;51.464;11.764;2023-11-22T10:00:35;11.57;;;4.43;;
66129;SDS011;52930;51.464;11.764;2023-11-22T10:03:00;14.30;;;4.77;;
66129;SDS011;52930;51.464;11.764;2023-11-22T10:05:26;11.37;;;4.40;;
66129;SDS011;52930;51.464;11.764;2023-11-22T10:07:53;12.18;;;4.57;;
66129;SDS011;52930;51.464;11.764;2023-11-22T10:10:19;12.70;;;4.43;;
66129;SDS011;52930;51.464;11.764;2023-11-22T10:12:47;11.05;;;4.30;;
66129;SDS011;52930;51.464;11.764;2023-11-22T10:15:14;11.60;;;4.70;;
66129;SDS011;52930;51.464;11.764;2023-11-22T10:17:41;12.73;;;5.00;;
66129;SDS011;52930;51.464;11.764;2023-11-22T10:20:12;11.90;;;4.60;;
66129;SDS011;52930;51.464;11.764;2023-11-22T10:22:44;13.77;;;4.97;;
66129;SDS011;52930;51.464;11.764;2023-11-22T10:25:12;13.70;;;4.50;;
66129;SDS011;52930;51.464;11.764;2023-11-22T10:27:44;13.15;;;5.07;;
66129;SDS011;52930;51.464;11.764;2023-11-22T10:30:13;11.32;;;4.88;;
66129;SDS011;52930;51.464;11.764;2023-11-22T10:32:40;12.93;;;5.80;;
66129;SDS011;52930;51.464;11.764;2023-11-22T10:35:06;11.35;;;4.63;;
66129;SDS011;52930;51.464;11.764;2023-11-22T10:37:33;13.15;;;5.30;;
66129;SDS011;52930;51.464;11.764;2023-11-22T10:39:59;14.88;;;5.45;;
66129;SDS011;52930;51.464;11.764;2023-11-22T10:42:24;13.43;;;5.03;;
66129;SDS011;52930;51.464;11.764;2023-11-22T10:44:51;14.32;;;5.50;;
66129;SDS011;52930;51.464;11.764;2023-11-22T10:47:20;14.43;;;5.30;;
66129;SDS011;52930;51.464;11.764;2023-11-22T10:49:46;14.20;;;4.80;;
66129;SDS011;52930;51.464;11.764;2023-11-22T10:52:12;15.10;;;5.40;;
66129;SDS011;52930;51.464;11.764;2023-11-22T10:54:39;12.90;;;4.68;;
66129;SDS011;52930;51.464;11.764;2023-11-22T10:57:10;12.27;;;5.30;;
66129;SDS011;52930;51.464;11.764;2023-11-22T10:59:37;11.55;;;5.03;;
66129;SDS011;52930;51.464;11.764;2023-11-22T11:02:05;12.73;;;5.13;;
66129;SDS011;52930;51.464;11.764;2023-11-22T11:04:39;14.23;;;5.63;;
66129;SDS011;52930;51.464;11.764;2023-11-22T11:07:08;13.63;;;5.18;;
66129;SDS011;52930;51.464;11.764;2023-11-22T11:09:40;13.15;;;5.00;;
66129;SDS011;52930;51.464;11.764;2023-11-22T11:12:06;13.13;;;5.80;;
66129;SDS011;52930;51.464;11.764;2023-11-22T11:14:32;13.10;;;5.05;;
66129;SDS011;52930;51.464;11.764;2023-11-22T11:16:58;15.32;;;6.07;;
66129;SDS011;52930;51.464;11.764;2023-11-22T11:19:24;13.50;;;5.80;;
66129;SDS011;52930;51.464;11.764;2023-11-22T11:21:50;15.98;;;6.43;;
66129;SDS011;52930;51.464;11.764;2023-11-22T11:24:16;12.87;;;5.50;;
66129;SDS011;52930;51.464;11.764;2023-11-22T11:26:47;12.55;;;5.28;;
66129;SDS011;52930;51.464;11.764;2023-11-22T11:29:33;15.88;;;6.15;;
66129;SDS011;52930;51.464;11.764;2023-11-22T11:32:04;12.90;;;4.93;;
66129;SDS011;52930;51.464;11.764;2023-11-22T11:34:29;14.38;;;5.90;;
66129;SDS011;52930;51.464;11.764;2023-11-22T11:36:55;14.17;;;6.07;;
66129;SDS011;52930;51.464;11.764;2023-11-22T11:39:24;14.43;;;6.07;;
66129;SDS011;52930;51.464;11.764;2023-11-22T11:42:06;15.87;;;6.27;;
66129;SDS011;52930;51.464;11.764;2023-11-22T11:44:33;16.02;;;6.45;;
66129;SDS011;52930;51.464;11.764;2023-11-22T11:46:58;14.88;;;6.03;;
66129;SDS011;52930;51.464;11.764;2023-11-22T11:49:24;14.27;;;6.20;;
66129;SDS011;52930;51.464;11.764;2023-11-22T11:51:50;16.15;;;6.97;;
66129;SDS011;52930;51.464;11.764;2023-11-22T11:54:16;13.70;;;5.95;;
66129;SDS011;52930;51.464;11.764;2023-11-22T11:56:41;15.93;;;6.63;;
66129;SDS011;52930;51.464;11.764;2023-11-22T11:59:08;15.77;;;6.32;;
66129;SDS011;52930;51.464;11.764;2023-11-22T12:01:34;14.40;;;6.33;;
66129;SDS011;52930;51.464;11.764;2023-11-22T12:04:00;15.10;;;6.03;;
66129;SDS011;52930;51.464;11.764;2023-11-22T12:06:28;17.00;;;6.60;;
66129;SDS011;52930;51.464;11.764;2023-11-22T12:08:54;19.23;;;6.18;;
66129;SDS011;52930;51.464;11.764;2023-11-22T12:11:19;15.10;;;6.40;;
66129;SDS011;52930;51.464;11.764;2023-11-22T12:13:44;16.77;;;5.90;;
66129;SDS011;52930;51.464;11.764;2023-11-22T12:16:15;14.15;;;6.22;;
66129;SDS011;52930;51.464;11.764;2023-11-22T12:18:45;17.20;;;6.60;;
66129;SDS011;52930;51.464;11.764;2023-11-22T12:21:12;14.90;;;6.60;;
66129;SDS011;52930;51.464;11.764;2023-11-22T12:23:39;16.08;;;6.55;;
66129;SDS011;52930;51.464;11.764;2023-11-22T12:26:09;18.17;;;6.80;;
66129;SDS011;52930;51.464;11.764;2023-11-22T12:28:36;14.75;;;5.53;;
66129;SDS011;52930;51.464;11.764;2023-11-22T12:31:08;14.00;;;6.05;;
66129;SDS011;52930;51.464;11.764;2023-11-22T12:33:34;16.83;;;6.45;;
66129;SDS011;52930;51.464;11.764;2023-11-22T12:36:00;13.60;;;5.72;;
66129;SDS011;52930;51.464;11.764;2023-11-22T12:38:26;18.27;;;6.73;;
66129;SDS011;52930;51.464;11.764;2023-11-22T12:40:52;11.43;;;5.03;;
66129;SDS011;52930;51.464;11.764;2023-11-22T12:43:21;16.65;;;7.13;;
66129;SDS011;52930;51.464;11.764;2023-11-22T12:45:47;16.00;;;6.47;;
66129;SDS011;52930;51.464;11.764;2023-11-22T12:48:19;14.80;;;6.10;;
66129;SDS011;52930;51.464;11.764;2023-11-22T12:50:46;17.13;;;6.43;;
66129;SDS011;52930;51.464;11.764;2023-11-22T12:53:12;13.17;;;5.57;;
66129;SDS011;52930;51.464;11.764;2023-11-22T12:55:42;17.85;;;7.60;;
66129;SDS011;52930;51.464;11.764;2023-11-22T12:58:09;17.30;;;6.97;;
66129;SDS011;52930;51.464;11.764;2023-11-22T13:00:34;14.80;;;6.13;;
66129;SDS011;52930;51.464;11.764;2023-11-22T13:03:00;34.07;;;13.63;;
66129;SDS011;52930;51.464;11.764;2023-11-22T13:05:26;21.90;;;9.13;;
66129;SDS011;52930;51.464;11.764;2023-11-22T13:07:51;29.13;;;10.80;;
66129;SDS011;52930;51.464;11.764;2023-11-22T13:10:18;18.93;;;7.73;;
66129;SDS011;52930;51.464;11.764;2023-11-22T13:12:43;17.80;;;7.75;;
66129;SDS011;52930;51.464;11.764;2023-11-22T13:15:10;14.70;;;6.50;;
66129;SDS011;52930;51.464;11.764;2023-11-22T13:17:37;19.88;;;7.78;;
66129;SDS011;52930;51.464;11.764;2023-11-22T13:20:08;17.33;;;7.70;;
66129;SDS011;52930;51.464;11.764;2023-11-22T13:22:39;12.35;;;5.35;;
66129;SDS011;52930;51.464;11.764;2023-11-22T13:25:10;14.00;;;6.80;;
66129;SDS011;52930;51.464;11.764;2023-11-22T13:27:36;17.35;;;7.10;;
66129;SDS011;52930;51.464;11.764;2023-11-22T13:30:02;16.90;;;7.03;;
66129;SDS011;52930;51.464;11.764;2023-11-22T13:32:29;17.33;;;6.90;;
66129;SDS011;52930;51.464;11.764;2023-11-22T13:34:55;14.93;;;6.70;;
66129;SDS011;52930;51.464;11.764;2023-11-22T13:37:24;15.30;;;5.75;;
66129;SDS011;52930;51.464;11.764;2023-11-22T13:39:50;17.38;;;6.70;;
66129;SDS011;52930;51.464;11.764;2023-11-22T13:42:16;16.37;;;7.60;;
66129;SDS011;52930;51.464;11.764;2023-11-22T13:44:41;16.50;;;7.33;;
66129;SDS011;52930;51.464;11.764;2023-11-22T13:47:08;17.45;;;7.75;;
66129;SDS011;52930;51.464;11.764;2023-11-22T13:49:34;15.13;;;6.53;;
66129;SDS011;52930;51.464;11.764;2023-11-22T13:52:01;17.70;;;6.97;;
66129;SDS011;52930;51.464;11.764;2023-11-22T13:54:26;19.13;;;8.00;;
66129;SDS011;52930;51.464;11.764;2023-11-22T13:56:52;16.97;;;7.10;;
66129;SDS011;52930;51.464;11.764;2023-11-22T13:59:18;18.00;;;8.00;;
66129;SDS011;52930;51.464;11.764;2023-11-22T14:01:44;17.53;;;7.93;;
66129;SDS011;52930;51.464;11.764;2023-11-22T14:04:10;16.52;;;7.38;;
66129;SDS011;52930;51.464;11.764;2023-11-22T14:06:35;16.93;;;7.20;;
66129;SDS011;52930;51.464;11.764;2023-11-22T14:09:01;17.93;;;7.40;;
66129;SDS011;52930;51.464;11.764;2023-11-22T14:11:26;17.50;;;7.47;;
66129;SDS011;52930;51.464;11.764;2023-11-22T14:13:52;16.77;;;7.20;;
66129;SDS011;52930;51.464;11.764;2023-11-22T14:16:17;18.13;;;7.70;;
66129;SDS011;52930;51.464;11.764;2023-11-22T14:18:43;16.83;;;7.25;;
66129;SDS011;52930;51.464;11.764;2023-11-22T14:21:08;17.07;;;6.70;;